createdAt,value
2023-02-16T00:00:38.816Z,0.80
2023-02-16T00:03:10.239Z,0.90
2023-02-16T00:05:40.181Z,0.80
2023-02-16T00:08:10.280Z,1.17
2023-02-16T00:10:40.181Z,1.00
2023-02-16T00:13:35.709Z,1.20
2023-02-16T00:16:06.687Z,0.70
2023-02-16T00:18:36.585Z,0.90
2023-02-16T00:21:06.552Z,0.75
2023-02-16T00:23:36.421Z,0.70
2023-02-16T00:26:06.414Z,0.70
2023-02-16T00:28:36.279Z,0.98
2023-02-16T00:31:06.638Z,0.75
2023-02-16T00:33:39.480Z,0.80
2023-02-16T00:36:09.838Z,0.80
2023-02-16T00:38:43.178Z,0.83
2023-02-16T00:41:41.419Z,0.83
2023-02-16T00:44:20.091Z,1.00
2023-02-16T00:46:50.427Z,0.90
2023-02-16T00:49:23.533Z,0.90
2023-02-16T00:51:53.680Z,0.70
2023-02-16T00:54:38.046Z,0.82
2023-02-16T01:00:32.433Z,1.00
2023-02-16T01:06:44.688Z,0.80
2023-02-16T01:21:57.382Z,0.90
2023-02-16T01:24:41.314Z,0.80
2023-02-16T01:27:22.067Z,0.80
2023-02-16T01:30:02.473Z,1.10
2023-02-16T01:32:32.619Z,0.80
2023-02-16T01:35:11.702Z,0.93
2023-02-16T01:38:04.209Z,0.70
2023-02-16T01:40:46.257Z,0.62
2023-02-16T01:43:25.065Z,0.77
2023-02-16T01:46:17.597Z,0.68
2023-02-16T01:49:05.017Z,0.60
2023-02-16T01:52:13.826Z,0.80
2023-02-16T01:57:48.601Z,0.70
2023-02-16T02:03:58.962Z,0.60
2023-02-16T02:09:41.044Z,0.65
2023-02-16T02:12:22.448Z,0.60
2023-02-16T02:14:59.543Z,0.90
2023-02-16T02:17:32.718Z,0.70
2023-02-16T02:24:17.839Z,0.85
2023-02-16T02:27:12.521Z,0.80
2023-02-16T02:33:04.672Z,0.50
2023-02-16T02:39:22.335Z,0.50
2023-02-16T02:42:09.190Z,0.53
2023-02-16T02:44:43.328Z,0.50
2023-02-16T02:47:17.424Z,0.50
2023-02-16T02:49:55.535Z,0.50
2023-02-16T02:52:35.103Z,0.70
2023-02-16T02:55:22.955Z,0.40
2023-02-16T02:58:11.168Z,0.40
2023-02-16T03:00:51.238Z,0.60
2023-02-16T03:03:28.581Z,0.40
2023-02-16T03:06:08.919Z,0.53
2023-02-16T03:08:55.885Z,0.57
2023-02-16T03:11:43.379Z,0.70
2023-02-16T03:14:24.852Z,0.50
2023-02-16T03:17:17.836Z,0.50
2023-02-16T03:20:26.532Z,0.60
2023-02-16T03:29:21.503Z,0.45
2023-02-16T03:34:46.549Z,0.50
2023-02-16T03:37:29.969Z,0.60
2023-02-16T03:44:02.836Z,0.60
2023-02-16T03:46:33.205Z,0.50
2023-02-16T03:49:22.596Z,0.40
2023-02-16T03:51:53.306Z,0.42
2023-02-16T03:54:27.326Z,0.40
2023-02-16T03:56:55.934Z,0.40
2023-02-16T03:59:25.944Z,0.40
2023-02-16T04:01:57.450Z,0.50
2023-02-16T04:04:27.417Z,0.50
2023-02-16T04:06:57.522Z,0.50
2023-02-16T04:09:27.607Z,0.50
2023-02-16T04:12:14.787Z,0.40
2023-02-16T04:14:44.838Z,0.50
2023-02-16T04:17:14.741Z,0.60
2023-02-16T04:19:44.801Z,0.40
2023-02-16T04:22:14.755Z,1.20
2023-02-16T04:24:44.693Z,1.00
2023-02-16T04:27:14.644Z,0.62
2023-02-16T04:29:44.555Z,0.78
2023-02-16T04:32:14.506Z,0.50
2023-02-16T04:34:44.488Z,0.50
2023-02-16T04:37:16.126Z,0.50
2023-02-16T04:39:46.078Z,0.40
2023-02-16T04:42:15.954Z,0.60
2023-02-16T04:44:45.870Z,0.57
2023-02-16T04:47:15.884Z,0.60
2023-02-16T04:49:48.064Z,0.40
2023-02-16T04:52:18.941Z,0.50
2023-02-16T04:54:48.817Z,0.40
2023-02-16T04:57:18.718Z,0.40
2023-02-16T04:59:52.045Z,0.47
2023-02-16T05:02:24.720Z,0.42
2023-02-16T05:04:55.835Z,0.50
2023-02-16T05:07:25.683Z,0.40
2023-02-16T05:09:55.731Z,0.50
2023-02-16T05:12:43.189Z,0.40
2023-02-16T05:15:13.072Z,0.50
2023-02-16T05:17:42.932Z,0.40
2023-02-16T05:20:13.342Z,0.40
2023-02-16T05:22:44.196Z,0.40
2023-02-16T05:25:14.027Z,0.42
2023-02-16T05:27:44.039Z,0.40
2023-02-16T05:30:15.158Z,0.20
2023-02-16T05:32:45.106Z,0.55
2023-02-16T05:35:25.211Z,0.40
2023-02-16T05:37:47.429Z,0.50
2023-02-16T05:40:17.397Z,0.33
2023-02-16T05:42:47.297Z,0.30
2023-02-16T05:45:17.344Z,0.50
2023-02-16T05:47:52.217Z,0.50
2023-02-16T05:50:40.147Z,0.40
2023-02-16T05:53:10.057Z,0.40
2023-02-16T05:55:39.898Z,0.30
2023-02-16T05:58:10.091Z,0.40
2023-02-16T06:00:40.168Z,0.50
2023-02-16T06:03:10.002Z,0.30
2023-02-16T06:05:39.893Z,0.30
2023-02-16T06:08:09.804Z,0.43
2023-02-16T06:10:39.734Z,0.40
2023-02-16T06:13:11.173Z,0.40
2023-02-16T06:15:41.084Z,0.40
2023-02-16T06:18:12.108Z,0.50
2023-02-16T06:20:42.157Z,0.53
2023-02-16T06:23:12.878Z,0.40
2023-02-16T06:25:46.177Z,0.40
2023-02-16T06:28:16.067Z,0.40
2023-02-16T06:30:46.055Z,0.30
2023-02-16T06:33:15.975Z,0.50
2023-02-16T06:35:45.883Z,0.30
2023-02-16T06:38:15.792Z,0.40
2023-02-16T06:40:45.636Z,0.40
2023-02-16T06:43:19.230Z,0.30
2023-02-16T06:45:48.969Z,0.30
2023-02-16T06:48:18.897Z,0.37
2023-02-16T06:50:48.770Z,0.40
2023-02-16T06:53:18.719Z,0.30
2023-02-16T06:55:48.571Z,0.37
2023-02-16T06:58:18.522Z,0.40
2023-02-16T07:00:48.525Z,0.47
2023-02-16T07:03:18.423Z,0.30
2023-02-16T07:05:48.599Z,0.30
2023-02-16T07:08:18.455Z,0.40
2023-02-16T07:10:50.362Z,0.30
2023-02-16T07:13:19.876Z,0.30
2023-02-16T07:15:49.724Z,0.30
2023-02-16T07:18:19.582Z,0.40
2023-02-16T07:20:50.087Z,0.30
2023-02-16T07:23:19.928Z,0.45
2023-02-16T07:25:49.914Z,0.40
2023-02-16T07:28:20.306Z,0.33
2023-02-16T07:30:50.209Z,0.40
2023-02-16T07:33:20.531Z,0.35
2023-02-16T07:35:51.002Z,0.30
2023-02-16T07:38:21.566Z,0.40
2023-02-16T07:40:51.634Z,0.30
2023-02-16T07:43:22.681Z,0.30
2023-02-16T07:45:52.799Z,0.50
2023-02-16T07:48:26.718Z,0.30
2023-02-16T07:50:56.672Z,0.30
2023-02-16T07:53:27.024Z,0.40
2023-02-16T07:55:57.346Z,0.40
2023-02-16T07:58:30.109Z,0.30
2023-02-16T08:01:01.386Z,0.30
2023-02-16T08:03:31.308Z,0.30
2023-02-16T08:06:03.119Z,0.30
2023-02-16T08:08:33.628Z,0.37
2023-02-16T08:11:05.202Z,0.30
2023-02-16T08:13:35.490Z,0.40
2023-02-16T08:16:05.708Z,0.40
2023-02-16T08:18:36.131Z,0.30
2023-02-16T08:21:16.278Z,0.30
2023-02-16T08:23:48.888Z,0.30
2023-02-16T08:26:18.851Z,0.30
2023-02-16T08:28:50.457Z,0.30
2023-02-16T08:31:22.030Z,0.50
2023-02-16T08:33:53.000Z,0.40
2023-02-16T08:36:29.350Z,0.48
2023-02-16T08:38:59.630Z,0.37
2023-02-16T08:41:31.718Z,0.40
2023-02-16T08:44:01.649Z,0.50
2023-02-16T08:46:31.642Z,0.30
2023-02-16T08:49:01.503Z,0.30
2023-02-16T08:51:32.557Z,0.50
2023-02-16T08:54:04.247Z,0.40
2023-02-16T08:56:33.890Z,0.40
2023-02-16T08:59:03.919Z,0.30
2023-02-16T09:01:33.975Z,0.30
2023-02-16T09:04:03.848Z,0.30
2023-02-16T09:06:36.044Z,0.30
2023-02-16T09:09:06.063Z,0.40
2023-02-16T09:11:36.126Z,0.30
2023-02-16T09:14:06.196Z,0.30
2023-02-16T09:16:37.579Z,0.40
2023-02-16T09:19:07.702Z,0.40
2023-02-16T09:21:38.089Z,0.40
2023-02-16T09:24:09.684Z,0.42
2023-02-16T09:26:39.906Z,0.60
2023-02-16T09:29:09.847Z,0.50
2023-02-16T09:31:40.286Z,0.70
2023-02-16T09:34:23.061Z,0.50
2023-02-16T09:36:54.077Z,0.60
2023-02-16T09:39:23.933Z,0.60
2023-02-16T09:42:09.779Z,0.45
2023-02-16T09:44:45.343Z,0.70
2023-02-16T09:47:38.439Z,0.50
2023-02-16T09:50:17.169Z,0.60
2023-02-16T09:53:04.435Z,0.50
2023-02-16T09:55:47.129Z,0.50
2023-02-16T09:58:24.075Z,0.60
2023-02-16T10:00:56.035Z,0.60
2023-02-16T10:03:52.254Z,0.57
2023-02-16T10:06:37.834Z,0.70
2023-02-16T10:09:14.875Z,0.78
2023-02-16T10:11:57.083Z,0.50
2023-02-16T10:14:47.755Z,0.60
2023-02-16T10:17:32.514Z,0.50
2023-02-16T10:20:18.487Z,0.53
2023-02-16T10:22:50.129Z,0.60
2023-02-16T10:25:25.451Z,0.50
2023-02-16T10:28:02.311Z,0.50
2023-02-16T10:30:32.180Z,0.63
2023-02-16T10:33:23.555Z,0.50
2023-02-16T10:35:56.369Z,0.60
2023-02-16T10:38:38.338Z,0.42
2023-02-16T10:41:11.317Z,0.40
2023-02-16T10:43:54.948Z,0.50
2023-02-16T10:46:27.701Z,0.60
2023-02-16T10:48:58.044Z,0.50
2023-02-16T10:51:28.941Z,0.70
2023-02-16T10:54:09.537Z,0.60
2023-02-16T10:56:44.933Z,0.60
2023-02-16T10:59:20.511Z,0.50
2023-02-16T11:01:55.089Z,0.53
2023-02-16T11:04:42.414Z,0.50
2023-02-16T11:07:17.590Z,0.60
2023-02-16T11:09:49.144Z,0.60
2023-02-16T11:12:24.388Z,0.50
2023-02-16T11:15:00.556Z,0.62
2023-02-16T11:17:30.544Z,0.40
2023-02-16T11:20:06.572Z,0.50
2023-02-16T11:22:38.505Z,0.50
2023-02-16T11:25:26.397Z,0.60
2023-02-16T11:28:10.468Z,0.50
2023-02-16T11:30:42.065Z,0.63
2023-02-16T11:33:20.752Z,0.60
2023-02-16T11:35:50.675Z,0.65
2023-02-16T11:38:28.528Z,0.50
2023-02-16T11:40:58.377Z,0.50
2023-02-16T11:43:33.104Z,0.60
2023-02-16T11:46:11.292Z,0.60
2023-02-16T11:48:41.400Z,0.70
2023-02-16T11:51:11.974Z,0.60
2023-02-16T11:53:43.010Z,0.60
2023-02-16T11:56:21.213Z,0.50
2023-02-16T11:59:17.746Z,0.45
2023-02-16T12:01:53.320Z,0.50
2023-02-16T12:04:42.120Z,0.40
2023-02-16T12:07:27.822Z,0.40
2023-02-16T12:10:14.652Z,0.40
2023-02-16T12:13:03.716Z,0.50
2023-02-16T12:15:57.904Z,0.50
2023-02-16T12:18:47.261Z,0.40
2023-02-16T12:21:29.019Z,0.55
2023-02-16T12:24:13.759Z,0.40
2023-02-16T12:26:54.034Z,0.40
2023-02-16T12:29:29.952Z,0.42
2023-02-16T12:32:14.074Z,0.40
2023-02-16T12:35:13.296Z,0.40
2023-02-16T12:37:54.666Z,0.30
2023-02-16T12:40:44.539Z,0.30
2023-02-16T12:43:28.802Z,0.23
2023-02-16T12:45:58.703Z,0.30
2023-02-16T12:48:41.027Z,0.25
2023-02-16T12:51:16.874Z,0.30
2023-02-16T12:53:49.866Z,0.30
2023-02-16T12:56:40.613Z,0.20
2023-02-16T12:59:19.206Z,0.30
2023-02-16T13:01:51.696Z,0.30
2023-02-16T13:04:27.791Z,0.30
2023-02-16T13:07:10.232Z,0.20
2023-02-16T13:09:54.749Z,0.30
2023-02-16T13:12:54.156Z,0.20
2023-02-16T13:15:28.822Z,0.20
2023-02-16T13:18:00.036Z,0.30
2023-02-16T13:20:30.150Z,0.30
2023-02-16T13:23:05.828Z,0.28
2023-02-16T13:26:10.291Z,0.20
2023-02-16T13:28:43.620Z,0.10
2023-02-16T13:31:38.907Z,0.20
2023-02-16T13:34:32.823Z,0.28
2023-02-16T13:37:08.046Z,0.20
2023-02-16T13:39:55.268Z,0.20
2023-02-16T13:42:34.765Z,0.20
2023-02-16T13:45:06.521Z,0.13
2023-02-16T13:47:38.474Z,0.10
2023-02-16T13:50:10.558Z,0.20
2023-02-16T13:52:43.360Z,0.20
2023-02-16T13:55:33.052Z,0.17
2023-02-16T13:58:08.171Z,0.20
2023-02-16T14:00:43.082Z,0.10
2023-02-16T14:03:15.964Z,0.10
2023-02-16T14:05:47.766Z,0.13
2023-02-16T14:08:23.410Z,0.10
2023-02-16T14:10:59.561Z,0.10
2023-02-16T14:13:48.863Z,0.10
2023-02-16T14:16:32.638Z,0.20
2023-02-16T14:19:20.462Z,0.13
2023-02-16T14:21:51.044Z,0.10
2023-02-16T14:24:35.865Z,0.10
2023-02-16T14:27:07.400Z,0.10
2023-02-16T14:29:56.026Z,0.17
2023-02-16T14:32:37.489Z,0.10
2023-02-16T14:35:21.651Z,0.20
2023-02-16T14:37:59.892Z,0.10
2023-02-16T14:40:41.556Z,0.10
2023-02-16T14:43:30.284Z,0.10
2023-02-16T14:46:18.347Z,0.10
2023-02-16T14:49:26.522Z,0.10
2023-02-16T14:52:18.739Z,0.00
2023-02-16T14:55:00.288Z,0.10
2023-02-16T14:57:45.042Z,0.10
2023-02-16T15:00:23.844Z,0.10
2023-02-16T15:03:00.052Z,0.10
2023-02-16T15:05:35.571Z,0.15
2023-02-16T15:08:17.443Z,0.15
2023-02-16T15:10:47.785Z,0.10
2023-02-16T15:13:24.913Z,0.17
2023-02-16T15:16:00.327Z,0.10
2023-02-16T15:18:41.380Z,0.10
2023-02-16T15:21:37.392Z,0.10
2023-02-16T15:26:59.420Z,0.14
2023-02-16T15:29:29.375Z,0.10
2023-02-16T15:32:00.336Z,0.10
2023-02-16T15:34:35.673Z,0.10
2023-02-16T15:37:07.314Z,0.10
2023-02-16T15:39:49.908Z,0.10
2023-02-16T15:42:23.177Z,0.08
2023-02-16T15:44:54.982Z,0.10
2023-02-16T15:47:27.073Z,0.10
2023-02-16T15:49:57.195Z,0.20
2023-02-16T15:52:39.283Z,0.15
2023-02-16T15:55:10.990Z,0.20
2023-02-16T15:57:42.271Z,0.13
2023-02-16T16:00:23.970Z,0.10
2023-02-16T16:02:56.527Z,0.20
2023-02-16T16:05:32.802Z,0.20
2023-02-16T16:08:02.780Z,0.10
2023-02-16T16:10:36.620Z,0.17
2023-02-16T16:13:17.613Z,0.20
2023-02-16T16:15:48.624Z,0.20
2023-02-16T16:18:41.906Z,0.10
2023-02-16T16:21:20.769Z,0.20
2023-02-16T16:24:16.204Z,0.20
2023-02-16T16:26:56.463Z,0.20
2023-02-16T16:29:44.730Z,0.10
2023-02-16T16:32:29.541Z,0.20
2023-02-16T16:34:59.581Z,0.15
2023-02-16T16:37:30.870Z,0.15
2023-02-16T16:40:08.996Z,0.10
2023-02-16T16:42:42.954Z,0.20
2023-02-16T16:45:24.493Z,0.10
2023-02-16T16:47:55.113Z,0.20
2023-02-16T16:50:39.328Z,0.10
2023-02-16T16:53:17.938Z,0.10
2023-02-16T16:55:52.810Z,0.20
2023-02-16T16:58:23.035Z,0.10
2023-02-16T17:01:03.163Z,0.10
2023-02-16T17:03:33.307Z,0.10
2023-02-16T17:06:03.600Z,0.20
2023-02-16T17:08:33.723Z,0.20
2023-02-16T17:11:04.132Z,0.10
2023-02-16T17:13:34.639Z,0.10
2023-02-16T17:16:18.989Z,0.10
2023-02-16T17:18:51.287Z,0.10
2023-02-16T17:21:41.269Z,0.10
2023-02-16T17:24:11.163Z,0.15
2023-02-16T17:26:40.988Z,0.10
2023-02-16T17:29:11.073Z,0.10
2023-02-16T17:31:41.256Z,0.10
2023-02-16T17:34:13.070Z,0.10
2023-02-16T17:36:43.220Z,0.10
2023-02-16T17:39:13.041Z,0.20
2023-02-16T17:41:42.926Z,0.10
2023-02-16T17:44:12.842Z,0.10
2023-02-16T17:46:42.728Z,0.10
2023-02-16T17:49:12.955Z,0.20
2023-02-16T17:51:42.901Z,0.10
2023-02-16T17:54:12.800Z,0.10
2023-02-16T17:56:42.792Z,0.07
2023-02-16T17:59:14.682Z,0.10
2023-02-16T18:01:45.481Z,0.10
2023-02-16T18:04:15.895Z,0.10
2023-02-16T18:06:45.861Z,0.10
2023-02-16T18:09:18.937Z,0.10
2023-02-16T18:11:49.023Z,0.10
2023-02-16T18:14:19.083Z,0.10
2023-02-16T18:16:51.784Z,0.10
2023-02-16T18:19:21.941Z,0.20
2023-02-16T18:21:51.906Z,0.10
2023-02-16T18:24:29.772Z,0.10
2023-02-16T18:26:59.807Z,0.10
2023-02-16T18:29:29.754Z,0.10
2023-02-16T18:31:59.661Z,0.10
2023-02-16T18:34:29.593Z,0.10
2023-02-16T18:36:59.612Z,0.10
2023-02-16T18:39:35.344Z,0.10
2023-02-16T18:42:23.585Z,0.10
2023-02-16T18:44:54.611Z,0.10
2023-02-16T18:47:25.473Z,0.30
2023-02-16T18:49:56.814Z,0.10
2023-02-16T18:52:27.699Z,0.10
2023-02-16T18:54:58.987Z,0.10
2023-02-16T18:57:28.838Z,0.17
2023-02-16T18:59:59.997Z,0.10
2023-02-16T19:02:30.906Z,0.10
2023-02-16T19:05:00.721Z,0.15
2023-02-16T19:07:31.739Z,0.10
2023-02-16T19:10:01.808Z,0.10
2023-02-16T19:12:31.946Z,0.20
2023-02-16T19:15:04.637Z,0.13
2023-02-16T19:17:34.575Z,0.13
2023-02-16T19:20:04.498Z,0.10
2023-02-16T19:22:35.841Z,0.10
2023-02-16T19:25:06.983Z,0.10
2023-02-16T19:27:36.806Z,0.10
2023-02-16T19:30:07.526Z,0.10
2023-02-16T19:32:37.381Z,0.20
2023-02-16T19:35:07.470Z,0.30
2023-02-16T19:37:37.474Z,0.10
2023-02-16T19:40:09.193Z,0.10
2023-02-16T19:42:39.173Z,0.10
2023-02-16T19:45:09.460Z,0.10
2023-02-16T19:47:39.306Z,0.10
2023-02-16T19:50:09.523Z,0.10
2023-02-16T19:52:39.462Z,0.10
2023-02-16T19:55:11.416Z,0.10
2023-02-16T19:57:41.021Z,0.10
2023-02-16T20:00:14.678Z,0.10
2023-02-16T20:02:44.603Z,0.10
2023-02-16T20:05:14.411Z,0.20
2023-02-16T20:07:44.330Z,0.10
2023-02-16T20:10:14.271Z,0.30
2023-02-16T20:12:44.092Z,0.10
2023-02-16T20:15:15.357Z,0.20
2023-02-16T20:17:45.307Z,0.27
2023-02-16T20:20:15.572Z,0.10
2023-02-16T20:22:45.534Z,0.10
2023-02-16T20:25:15.370Z,0.10
2023-02-16T20:27:45.219Z,0.10
2023-02-16T20:30:17.864Z,0.10
2023-02-16T20:32:48.428Z,0.10
2023-02-16T20:35:18.285Z,0.10
2023-02-16T20:37:48.095Z,0.10
2023-02-16T20:40:19.314Z,0.10
2023-02-16T20:42:49.176Z,0.10
2023-02-16T20:45:19.101Z,0.10
2023-02-16T20:47:48.863Z,0.10
2023-02-16T20:50:18.752Z,0.10
2023-02-16T20:52:48.732Z,0.08
2023-02-16T20:55:18.565Z,0.10
2023-02-16T20:57:48.399Z,0.10
2023-02-16T21:00:20.913Z,0.08
2023-02-16T21:02:50.908Z,0.10
2023-02-16T21:05:21.046Z,0.10
2023-02-16T21:07:50.967Z,0.10
2023-02-16T21:10:20.835Z,0.10
2023-02-16T21:12:50.671Z,0.10
2023-02-16T21:15:20.595Z,0.15
2023-02-16T21:17:50.440Z,0.00
2023-02-16T21:20:20.287Z,0.00
2023-02-16T21:22:53.047Z,0.20
2023-02-16T21:25:23.709Z,0.20
2023-02-16T21:27:53.745Z,0.10
2023-02-16T21:30:23.867Z,0.10
2023-02-16T21:32:54.793Z,0.10
2023-02-16T21:35:25.167Z,0.10
2023-02-16T21:37:55.936Z,0.20
2023-02-16T21:40:44.116Z,0.10
2023-02-16T21:43:14.066Z,0.10
2023-02-16T21:45:43.988Z,0.10
2023-02-16T21:48:32.679Z,0.10
2023-02-16T21:51:07.280Z,0.10
2023-02-16T21:53:37.225Z,0.10
2023-02-16T21:56:20.899Z,0.10
2023-02-16T21:58:50.703Z,0.10
2023-02-16T22:01:28.188Z,0.10
2023-02-16T22:03:59.979Z,0.10
2023-02-16T22:06:32.799Z,0.10
2023-02-16T22:09:03.075Z,0.10
2023-02-16T22:11:37.228Z,0.23
2023-02-16T22:14:07.063Z,0.08
2023-02-16T22:16:37.375Z,0.10
2023-02-16T22:19:08.773Z,0.10
2023-02-16T22:21:39.351Z,0.10
2023-02-16T22:24:09.486Z,0.28
2023-02-16T22:27:05.743Z,0.10
2023-02-16T22:29:35.616Z,0.10
2023-02-16T22:32:05.680Z,0.10
2023-02-16T22:34:37.011Z,0.10
2023-02-16T22:37:06.855Z,0.10
2023-02-16T22:39:36.767Z,0.10
2023-02-16T22:42:06.634Z,0.20
2023-02-16T22:44:36.534Z,0.10
2023-02-16T22:47:06.431Z,0.23
2023-02-16T22:49:36.292Z,0.10
2023-02-16T22:52:08.484Z,0.07
2023-02-16T22:54:38.604Z,0.10
2023-02-16T22:57:08.512Z,0.10
2023-02-16T22:59:38.388Z,0.15
2023-02-16T23:02:10.589Z,0.20
2023-02-16T23:04:43.170Z,0.10
2023-02-16T23:07:12.072Z,0.00
2023-02-16T23:09:41.955Z,0.10
2023-02-16T23:12:12.236Z,0.10
2023-02-16T23:14:42.129Z,0.10
2023-02-16T23:17:12.256Z,0.10
2023-02-16T23:19:42.092Z,0.17
2023-02-16T23:22:12.016Z,0.10
2023-02-16T23:24:42.547Z,0.10
2023-02-16T23:27:12.420Z,0.10
2023-02-16T23:29:42.265Z,0.13
2023-02-16T23:32:12.563Z,0.10
2023-02-16T23:34:42.391Z,0.10
2023-02-16T23:37:12.351Z,0.10
2023-02-16T23:39:42.248Z,0.00
2023-02-16T23:42:12.105Z,0.10
2023-02-16T23:44:41.938Z,0.10
2023-02-16T23:47:11.837Z,0.00
2023-02-16T23:49:41.733Z,0.10
2023-02-16T23:52:11.710Z,0.10
2023-02-16T23:54:41.621Z,0.10
2023-02-16T23:57:13.719Z,0.20
2023-02-16T23:59:43.933Z,0.10
